Time;durP1;ratioP1;P1;durP2;ratioP2;P2;SDS_P1;SDS_P2;PMS_P1;PMS_P2;Temp;Humidity;BMP_temperature;BMP_pressure;BME280_temperature;BME280_humidity;BME280_pressure;Samples;Min_cycle;Max_cycle;Signal;HPM_P1;HPM_P2
2023/01/17 00:01:38;;;;;;;1.77;0.93;;;;;;;;;;5047450;28;20033;-76
2023/01/17 00:09:51;;;;;;;1.83;0.87;;;;;;;;;;5035065;28;20674;-77
2023/01/17 00:12:17;;;;;;;3.23;1.50;;;;;;;;;;5034369;28;20287;-77
2023/01/17 00:14:43;;;;;;;3.57;2.30;;;;;;;;;;5044785;28;20598;-76
2023/01/17 00:17:09;;;;;;;3.23;1.83;;;2.60;99.90;;;;;;5051197;28;20113;-78
2023/01/17 01:34:20;;;;;;;2.80;1.57;;;;;;;;;;5033280;28;20287;-76
2023/01/17 01:36:45;;;;;;;6.23;1.77;;;;;;;;;;5026093;28;20280;-77
2023/01/17 01:39:11;;;;;;;6.23;1.30;;;;;;;;;;5041103;28;20041;-77
2023/01/17 01:41:37;;;;;;;4.40;0.83;;;;;;;;;;5027682;28;20041;-78
2023/01/17 01:44:04;;;;;;;3.53;0.87;;;;;;;;;;5026803;28;20886;-77
2023/01/17 01:46:32;;;;;;;2.97;1.10;;;;;;;;;;5030384;28;20026;-77
2023/01/17 01:49:01;;;;;;;4.77;1.37;;;;;;;;;;5028271;28;20960;-78
2023/01/17 01:51:39;;;;;;;3.27;0.87;;;;;;;;;;5045105;28;20298;-77
2023/01/17 01:54:11;;;;;;;1.70;1.00;;;;;;;;;;5032197;28;20364;-77
2023/01/17 01:56:37;;;;;;;2.20;0.93;;;;;;;;;;5047996;28;20350;-76
2023/01/17 01:59:06;;;;;;;4.27;0.90;;;;;;;;;;5041152;28;20272;-78
2023/01/17 02:01:33;;;;;;;1.50;0.87;;;;;;;;;;5047751;28;20280;-76
2023/01/17 02:03:58;;;;;;;5.03;1.20;;;3.10;99.90;;;;;;5048532;28;20368;-78
2023/01/17 02:06:24;;;;;;;7.83;0.87;;;;;;;;;;5031622;28;20363;-77
2023/01/17 02:08:50;;;;;;;5.00;0.90;;;;;;;;;;5030381;28;20052;-77
2023/01/17 02:11:16;;;;;;;4.73;0.70;;;;;;;;;;5026667;28;20272;-77
2023/01/17 02:13:42;;;;;;;4.70;0.70;;;3.10;99.90;;;;;;5030926;28;20029;-77
2023/01/17 02:16:14;;;;;;;6.17;1.20;;;;;;;;;;5031497;28;20283;-78
2023/01/17 02:18:45;;;;;;;4.63;1.13;;;;;;;;;;5031395;28;20045;-77
2023/01/17 02:21:19;;;;;;;5.87;1.00;;;;;;;;;;5029107;28;20044;-76
2023/01/17 02:23:51;;;;;;;4.53;1.20;;;;;;;;;;5040201;28;20396;-77
2023/01/17 02:26:23;;;;;;;2.88;1.20;;;;;;;;;;5041302;28;20276;-76
2023/01/17 02:29:10;;;;;;;4.72;1.15;;;;;;;;;;5026422;28;20232;-78
2023/01/17 02:31:47;;;;;;;5.53;0.87;;;;;;;;;;5028440;28;20036;-77
2023/01/17 02:34:17;;;;;;;9.20;1.87;;;;;;;;;;5047653;28;20276;-78
2023/01/17 02:36:46;;;;;;;5.60;1.13;;;;;;;;;;5047919;28;20365;-77
2023/01/17 02:39:16;;;;;;;4.10;1.40;;;;;;;;;;5047845;28;20280;-77
2023/01/17 02:41:44;;;;;;;5.27;1.63;;;;;;;;;;5029185;28;20272;-76
2023/01/17 02:44:10;;;;;;;5.23;1.67;;;;;;;;;;5024566;28;20796;-77
2023/01/17 02:46:46;;;;;;;4.73;1.87;;;;;;;;;;5030307;28;20917;-77
2023/01/17 02:49:16;;;;;;;4.50;2.20;;;;;;;;;;5034613;28;20406;-77
2023/01/17 02:51:59;;;;;;;6.17;2.60;;;3.00;99.90;;;;;;5025281;28;20359;-76
2023/01/17 02:54:25;;;;;;;6.67;2.27;;;3.00;99.90;;;;;;5044046;28;20588;-75
2023/01/17 02:57:16;;;;;;;5.07;2.43;;;3.00;99.90;;;;;;5031451;28;20736;-76
2023/01/17 02:59:52;;;;;;;7.77;2.90;;;3.00;99.90;;;;;;5047138;28;20349;-77
2023/01/17 03:02:21;;;;;;;7.20;2.17;;;;;;;;;;5047727;28;20279;-77
2023/01/17 03:04:52;;;;;;;3.90;1.70;;;;;;;;;;5031024;28;20333;-78
2023/01/17 03:07:21;;;;;;;5.87;2.80;;;;;;;;;;5027387;28;20996;-78
2023/01/17 03:09:49;;;;;;;9.87;2.90;;;;;;;;;;5022316;28;20288;-77
2023/01/17 03:12:14;;;;;;;8.17;3.13;;;;;;;;;;5043196;28;20268;-77
2023/01/17 03:14:40;;;;;;;13.50;3.57;;;;;;;;;;5047551;28;20276;-77
2023/01/17 03:17:09;;;;;;;6.50;3.50;;;;;;;;;;5028804;28;20362;-77
2023/01/17 03:19:35;;;;;;;6.03;3.40;;;;;;;;;;5026756;28;20279;-78
2023/01/17 03:22:01;;;;;;;12.73;4.83;;;;;;;;;;5025929;28;20279;-77
2023/01/17 03:24:27;;;;;;;11.47;3.87;;;;;;;;;;5028825;28;20272;-78
2023/01/17 03:26:53;;;;;;;13.20;4.70;;;;;;;;;;5047771;28;20029;-77
2023/01/17 03:29:19;;;;;;;13.20;3.83;;;;;;;;;;5048658;28;20632;-76
2023/01/17 03:31:45;;;;;;;7.03;4.60;;;;;;;;;;5027127;28;20053;-77
2023/01/17 03:34:11;;;;;;;11.47;5.27;;;;;;;;;;5047517;28;20037;-77
2023/01/17 03:36:37;;;;;;;16.43;5.47;;;;;;;;;;5036167;28;20280;-77
2023/01/17 03:39:06;;;;;;;12.47;5.00;;;;;;;;;;5025524;28;20276;-78
2023/01/17 03:41:32;;;;;;;12.20;4.50;;;;;;;;;;5047256;28;20300;-77
2023/01/17 03:43:58;;;;;;;11.17;4.80;;;;;;;;;;5032116;28;20284;-77
2023/01/17 03:46:27;;;;;;;8.33;5.00;;;;;;;;;;5029778;28;20288;-78
2023/01/17 03:48:56;;;;;;;11.63;5.00;;;;;;;;;;5046918;28;20510;-78
2023/01/17 03:51:25;;;;;;;8.17;4.63;;;;;;;;;;5021874;28;20276;-77
2023/01/17 03:53:51;;;;;;;7.53;4.53;;;;;;;;;;5040519;28;20304;-77
2023/01/17 03:56:17;;;;;;;9.20;5.30;;;;;;;;;;5048665;28;20291;-77
2023/01/17 03:58:43;;;;;;;9.10;5.27;;;;;;;;;;5048263;28;20284;-78
2023/01/17 04:01:11;;;;;;;14.40;5.17;;;;;;;;;;5050384;28;20299;-78
2023/01/17 04:03:37;;;;;;;10.20;4.37;;;;;;;;;;5032160;28;20307;-78
2023/01/17 04:06:03;;;;;;;8.20;4.70;;;;;;;;;;5025385;28;20311;-77
2023/01/17 04:08:29;;;;;;;11.37;4.70;;;;;;;;;;5025511;28;20129;-78
2023/01/17 04:10:56;;;;;;;8.93;4.80;;;;;;;;;;5043301;28;20819;-78
2023/01/17 04:13:24;;;;;;;11.87;5.53;;;;;;;;;;5027012;28;20339;-77
2023/01/17 04:15:50;;;;;;;12.20;5.30;;;;;;;;;;5047421;28;20296;-77
2023/01/17 04:18:19;;;;;;;15.43;5.43;;;;;;;;;;5040237;28;20304;-77
2023/01/17 04:20:49;;;;;;;14.10;5.37;;;;;;;;;;5023480;28;20699;-77
2023/01/17 04:23:15;;;;;;;10.50;5.17;;;;;;;;;;5024580;28;20280;-77
2023/01/17 04:25:41;;;;;;;7.50;4.43;;;;;;;;;;5024250;28;20268;-78
2023/01/17 04:28:08;;;;;;;10.33;5.30;;;;;;;;;;5039356;28;20029;-78
2023/01/17 04:30:34;;;;;;;7.43;5.20;;;;;;;;;;5031149;28;20284;-78
2023/01/17 04:33:00;;;;;;;9.57;5.13;;;;;;;;;;5031625;28;20762;-78
2023/01/17 04:35:26;;;;;;;11.60;5.20;;;;;;;;;;5028580;28;20184;-76
2023/01/17 04:37:52;;;;;;;11.03;5.27;;;;;;;;;;5032459;28;20389;-78
2023/01/17 04:40:18;;;;;;;9.67;5.07;;;;;;;;;;5050464;28;20256;-78
2023/01/17 04:42:47;;;;;;;11.63;5.80;;;;;;;;;;5035161;28;20334;-78
2023/01/17 04:45:13;;;;;;;9.87;5.27;;;;;;;;;;5025529;28;20272;-77
2023/01/17 04:47:39;;;;;;;8.77;4.67;;;;;;;;;;5033507;28;20272;-77
2023/01/17 04:50:06;;;;;;;9.17;4.30;;;;;;;;;;5049096;28;20291;-76
2023/01/17 04:52:32;;;;;;;9.67;5.10;;;;;;;;;;5027668;28;20276;-77
2023/01/17 04:54:58;;;;;;;19.90;5.57;;;;;;;;;;5028408;28;20295;-78
2023/01/17 04:57:24;;;;;;;9.90;4.50;;;;;;;;;;5029587;28;20025;-77
2023/01/17 04:59:52;;;;;;;11.07;4.70;;;;;;;;;;5024148;28;20045;-78
2023/01/17 05:02:20;;;;;;;11.57;4.60;;;;;;;;;;5050713;28;20354;-76
2023/01/17 05:04:49;;;;;;;11.53;5.13;;;;;;;;;;5031001;28;20330;-78
2023/01/17 05:07:15;;;;;;;11.37;4.90;;;;;;;;;;5042732;28;20284;-77
2023/01/17 05:09:42;;;;;;;8.93;4.63;;;;;;;;;;5049872;28;20322;-78
2023/01/17 05:12:08;;;;;;;11.10;4.73;;;;;;;;;;5050142;28;20033;-78
2023/01/17 05:14:40;;;;;;;19.23;5.23;;;;;;;;;;5049318;28;20729;-78
2023/01/17 05:17:06;;;;;;;7.93;4.40;;;;;;;;;;5049778;28;20312;-78
2023/01/17 05:19:32;;;;;;;15.27;4.50;;;;;;;;;;5043290;28;20280;-76
2023/01/17 05:22:13;;;;;;;10.67;4.70;;;;;;;;;;5034092;28;20272;-78
2023/01/17 05:24:39;;;;;;;6.97;4.20;;;;;;;;;;5041002;28;20821;-76
2023/01/17 05:27:07;;;;;;;11.00;4.43;;;;;;;;;;5049154;28;20298;-78
2023/01/17 05:29:36;;;;;;;12.40;4.77;;;;;;;;;;5049822;28;20303;-76
2023/01/17 05:32:02;;;;;;;11.83;4.87;;;;;;;;;;5029193;28;22053;-77
2023/01/17 05:34:28;;;;;;;12.73;5.07;;;;;;;;;;5034003;28;20371;-76
2023/01/17 05:36:56;;;;;;;8.97;4.30;;;;;;;;;;5034030;28;20029;-77
2023/01/17 05:39:22;;;;;;;9.10;4.40;;;;;;;;;;5028192;28;20298;-77
2023/01/17 05:41:48;;;;;;;10.23;5.03;;;;;;;;;;5027980;28;20342;-76
2023/01/17 05:44:14;;;;;;;11.23;4.10;;;;;;;;;;5035329;28;20283;-78
2023/01/17 05:46:41;;;;;;;12.27;4.63;;;;;;;;;;5029318;28;20043;-77
2023/01/17 05:49:07;;;;;;;10.50;4.67;;;;;;;;;;5034916;28;20292;-78
2023/01/17 05:51:36;;;;;;;10.53;5.67;;;;;;;;;;5033752;28;20280;-78
2023/01/17 05:54:02;;;;;;;10.17;5.80;;;;;;;;;;5027552;28;20330;-78
2023/01/17 05:56:28;;;;;;;8.73;5.50;;;;;;;;;;5027495;28;20268;-78
2023/01/17 05:58:54;;;;;;;16.40;5.80;;;;;;;;;;5028050;28;20341;-78
2023/01/17 06:01:20;;;;;;;10.60;5.73;;;;;;;;;;5026840;28;20041;-78
2023/01/17 06:03:46;;;;;;;9.90;5.80;;;;;;;;;;5026167;28;20276;-77
2023/01/17 06:06:12;;;;;;;11.83;5.57;;;;;;;;;;5029131;28;20037;-77
2023/01/17 06:08:38;;;;;;;11.43;6.20;;;;;;;;;;5044253;28;20291;-78
2023/01/17 06:11:04;;;;;;;10.27;5.57;;;;;;;;;;5028930;28;20302;-78
2023/01/17 06:13:31;;;;;;;14.13;6.33;;;;;;;;;;5048341;28;20026;-79
2023/01/17 06:16:01;;;;;;;13.07;6.10;;;;;;;;;;5047935;28;20759;-77
2023/01/17 06:18:27;;;;;;;10.07;6.60;;;;;;;;;;5029566;28;20763;-77
2023/01/17 06:20:54;;;;;;;13.50;6.50;;;;;;;;;;5041997;28;20675;-76
2023/01/17 06:23:22;;;;;;;14.27;6.33;;;;;;;;;;5032947;28;20371;-77
2023/01/17 06:25:48;;;;;;;15.07;7.13;;;;;;;;;;5047400;28;20279;-78
2023/01/17 06:28:15;;;;;;;19.00;7.87;;;;;;;;;;5048296;28;20264;-77
2023/01/17 06:30:42;;;;;;;18.13;7.97;;;;;;;;;;5048466;28;20038;-76
2023/01/17 06:33:08;;;;;;;18.60;6.23;;;;;;;;;;5047969;28;20276;-76
2023/01/17 06:35:37;;;;;;;14.37;7.37;;;;;;;;;;5028967;28;20370;-78
2023/01/17 06:38:03;;;;;;;14.30;6.60;;;;;;;;;;5033362;28;20276;-78
2023/01/17 06:40:29;;;;;;;11.63;6.73;;;;;;;;;;5050068;28;20537;-77
2023/01/17 06:43:03;;;;;;;13.47;7.37;;;;;;;;;;5048126;28;20288;-76
2023/01/17 06:45:30;;;;;;;10.70;6.70;;;;;;;;;;5036984;28;20592;-78
2023/01/17 06:47:58;;;;;;;12.37;6.63;;;;;;;;;;5031753;28;20291;-77
2023/01/17 06:50:24;;;;;;;13.43;6.70;;;;;;;;;;5028359;28;20296;-78
2023/01/17 06:52:58;;;;;;;13.40;6.73;;;;;;;;;;5025493;28;20277;-77
2023/01/17 06:55:27;;;;;;;10.77;6.40;;;;;;;;;;5043370;28;20272;-78
2023/01/17 06:57:53;;;;;;;11.73;6.77;;;;;;;;;;5047664;28;20304;-78
2023/01/17 07:00:19;;;;;;;9.57;6.07;;;;;;;;;;5046982;28;20276;-77
2023/01/17 07:02:48;;;;;;;17.70;6.60;;;;;;;;;;5028724;28;20295;-78
2023/01/17 07:05:15;;;;;;;21.53;7.93;;;;;;;;;;5046789;28;20287;-78
2023/01/17 07:07:44;;;;;;;15.27;7.27;;;;;;;;;;5047400;28;20644;-78
2023/01/17 07:10:11;;;;;;;16.67;6.60;;;;;;;;;;5047645;28;20371;-77
2023/01/17 07:12:38;;;;;;;16.03;7.13;;;;;;;;;;5026729;28;20280;-77
2023/01/17 07:15:04;;;;;;;14.23;8.00;;;;;;;;;;5026594;28;20272;-78
2023/01/17 07:17:30;;;;;;;16.13;7.40;;;;;;;;;;5033257;28;20283;-78
2023/01/17 07:19:56;;;;;;;15.77;7.40;;;;;;;;;;5040410;28;20281;-77
2023/01/17 07:22:22;;;;;;;16.10;8.13;;;;;;;;;;5027864;28;20087;-78
2023/01/17 07:24:48;;;;;;;18.77;8.10;;;;;;;;;;5026265;28;20053;-78
2023/01/17 07:27:14;;;;;;;19.73;8.47;;;;;;;;;;5046915;28;20037;-78
2023/01/17 07:29:40;;;;;;;13.23;7.83;;;;;;;;;;5032057;28;20043;-79
2023/01/17 07:32:07;;;;;;;15.50;7.17;;;;;;;;;;5032168;28;20355;-78
2023/01/17 07:34:33;;;;;;;22.70;7.07;;;;;;;;;;5026161;28;20033;-77
2023/01/17 07:37:00;;;;;;;18.50;7.93;;;;;;;;;;5024210;28;20367;-77
2023/01/17 07:39:26;;;;;;;16.20;7.50;;;;;;;;;;5024494;28;20315;-79
2023/01/17 07:41:52;;;;;;;21.77;8.50;;;;;;;;;;5047452;28;22005;-79
2023/01/17 07:44:18;;;;;;;19.33;7.10;;;;;;;;;;5047373;28;20041;-78
2023/01/17 07:46:44;;;;;;;13.10;7.00;;;;;;;;;;5031137;28;20045;-76
2023/01/17 07:49:10;;;;;;;14.37;6.67;;;;;;;;;;5026294;28;20033;-78
2023/01/17 07:51:39;;;;;;;10.80;6.50;;;;;;;;;;5047435;28;20072;-77
2023/01/17 07:54:07;;;;;;;13.13;6.20;;;;;;;;;;5030955;28;20717;-78
2023/01/17 07:56:33;;;;;;;12.47;6.20;;;;;;;;;;5047226;28;20662;-77
2023/01/17 07:59:00;;;;;;;17.90;6.97;;;;;;;;;;5027559;28;20280;-78
2023/01/17 08:01:27;;;;;;;15.27;6.90;;;;;;;;;;5042341;28;20307;-79
2023/01/17 08:03:53;;;;;;;17.90;7.90;;;;;;;;;;5031486;28;21257;-77
2023/01/17 08:06:19;;;;;;;14.57;7.03;;;;;;;;;;5047090;28;20268;-78
2023/01/17 08:08:48;;;;;;;21.23;7.50;;;;;;;;;;5046917;28;20306;-78
2023/01/17 08:11:14;;;;;;;16.53;7.53;;;;;;;;;;5031065;28;20021;-78
2023/01/17 08:13:43;;;;;;;14.57;7.63;;;;;;;;;;5029489;28;20276;-77
2023/01/17 08:16:10;;;;;;;15.60;7.80;;;;;;;;;;5035739;28;20276;-77
2023/01/17 08:18:36;;;;;;;20.47;8.57;;;;;;;;;;5029425;28;20680;-77
2023/01/17 08:21:02;;;;;;;16.77;8.70;;;;;;;;;;5032892;28;20271;-77
2023/01/17 08:23:30;;;;;;;18.70;7.83;;;;;;;;;;5050099;28;20673;-78
2023/01/17 08:25:59;;;;;;;14.17;7.30;;;;;;;;;;5026977;28;20272;-76
2023/01/17 08:28:25;;;;;;;21.63;7.83;;;;;;;;;;5044674;28;20299;-77
2023/01/17 08:30:51;;;;;;;19.00;9.40;;;;;;;;;;5030298;28;20314;-78
2023/01/17 08:33:17;;;;;;;24.00;10.13;;;;;;;;;;5032620;28;20512;-77
2023/01/17 08:35:55;;;;;;;36.87;13.03;;;;;;;;;;5049478;28;20116;-77
2023/01/17 08:38:22;;;;;;;30.73;15.80;;;;;;;;;;5034271;28;20272;-77
2023/01/17 08:40:50;;;;;;;22.60;11.07;;;;;;;;;;5052127;28;20316;-78
2023/01/17 08:43:16;;;;;;;19.10;10.07;;;;;;;;;;5033927;28;20310;-77
2023/01/17 08:45:47;;;;;;;40.07;17.10;;;;;;;;;;5049287;28;20264;-77
2023/01/17 08:48:13;;;;;;;54.50;21.67;;;;;;;;;;5049249;28;20326;-77
2023/01/17 08:50:41;;;;;;;24.33;10.70;;;;;;;;;;5028267;28;20288;-76
2023/01/17 08:53:07;;;;;;;31.03;11.40;;;;;;;;;;5049858;28;20272;-76
2023/01/17 08:55:38;;;;;;;18.23;9.33;;;;;;;;;;5044109;28;20346;-76
2023/01/17 08:58:04;;;;;;;19.90;10.67;;;;;;;;;;5048773;28;20026;-77
2023/01/17 09:00:31;;;;;;;22.43;10.00;;;;;;;;;;5034272;28;20798;-77
2023/01/17 09:02:58;;;;;;;22.80;9.77;;;;;;;;;;5043699;28;20048;-77
2023/01/17 09:05:24;;;;;;;18.33;9.53;;;;;;;;;;5028327;28;20279;-77
2023/01/17 09:07:50;;;;;;;20.97;10.13;;;;;;;;;;5042345;28;20862;-77
2023/01/17 09:10:16;;;;;;;11.27;7.67;;;;;;;;;;5033031;28;20037;-77
2023/01/17 09:12:42;;;;;;;13.73;7.93;;;;;;;;;;5029441;28;20056;-77
2023/01/17 09:15:08;;;;;;;14.77;6.63;;;;;;;;;;5029558;28;20280;-78
2023/01/17 09:17:34;;;;;;;10.77;6.37;;;;;;;;;;5048730;28;20158;-78
2023/01/17 09:20:00;;;;;;;9.33;6.20;;;;;;;;;;5030543;28;20288;-76
2023/01/17 09:22:26;;;;;;;15.73;6.57;;;;;;;;;;5031457;28;20295;-77
2023/01/17 09:24:52;;;;;;;13.13;6.57;;;;;;;;;;5043840;28;20113;-77
2023/01/17 09:27:19;;;;;;;20.80;6.43;;;;;;;;;;5048147;28;20288;-78
2023/01/17 09:29:45;;;;;;;11.90;5.23;;;;;;;;;;5029480;28;21099;-78
2023/01/17 09:32:11;;;;;;;9.93;5.00;;;;;;;;;;5028860;28;20310;-77
2023/01/17 09:34:37;;;;;;;11.07;4.70;;;;;;;;;;5052707;28;20429;-78
2023/01/17 09:37:03;;;;;;;7.17;4.80;;;;;;;;;;5028450;28;20773;-76
2023/01/17 09:39:32;;;;;;;9.07;4.80;;;;;;;;;;5050664;28;20029;-78
2023/01/17 09:42:01;;;;;;;10.23;5.03;;;;;;;;;;5030577;28;20041;-78
2023/01/17 09:44:45;;;;;;;6.87;4.37;;;;;;;;;;5026059;28;20329;-78
2023/01/17 09:47:31;;;;;;;12.07;4.57;;;;;;;;;;5044340;28;20446;-78
2023/01/17 09:50:19;;;;;;;8.80;4.30;;;;;;;;;;5049181;28;20038;-78
2023/01/17 09:52:45;;;;;;;6.70;4.13;;;;;;;;;;5042490;28;20284;-76
2023/01/17 09:55:14;;;;;;;9.23;4.33;;;;;;;;;;5033140;28;20075;-78
2023/01/17 09:57:46;;;;;;;9.77;4.27;;;;;;;;;;5026454;28;20120;-77
2023/01/17 10:00:31;;;;;;;12.80;4.60;;;;;;;;;;5044059;28;20100;-78
2023/01/17 10:02:57;;;;;;;15.03;4.53;;;;;;;;;;5027362;28;20033;-77
2023/01/17 10:05:30;;;;;;;9.13;4.47;;;;;;;;;;5032670;28;20087;-78
2023/01/17 10:07:56;;;;;;;9.87;3.80;;;;;;;;;;5048302;28;20033;-78
2023/01/17 10:10:28;;;;;;;12.63;4.23;;;;;;;;;;5044506;28;20041;-77
2023/01/17 10:13:04;;;;;;;15.43;5.18;;;;;;;;;;5047870;28;20362;-77
2023/01/17 10:15:30;;;;;;;10.33;4.10;;;;;;;;;;5024422;28;20887;-77
2023/01/17 10:18:02;;;;;;;9.03;5.67;;;;;;;;;;5043469;28;20272;-77
2023/01/17 10:20:32;;;;;;;6.20;3.97;;;;;;;;;;5047214;28;20030;-79
2023/01/17 10:23:08;;;;;;;12.00;3.80;;;;;;;;;;5043939;28;20025;-77
2023/01/17 10:25:41;;;;;;;12.03;4.23;;;;;;;;;;5029728;28;20029;-77
2023/01/17 10:28:23;;;;;;;12.77;4.77;;;;;;;;;;5047103;28;20083;-78
2023/01/17 10:30:59;;;;;;;11.05;4.10;;;;;;;;;;5043818;28;20029;-77
2023/01/17 10:33:28;;;;;;;11.90;4.20;;;;;;;;;;5047609;28;20030;-78
2023/01/17 10:35:58;;;;;;;9.83;4.03;;;;;;;;;;5024091;28;20044;-77
2023/01/17 10:38:32;;;;;;;13.80;4.47;;;;;;;;;;5047203;28;20454;-78
2023/01/17 10:41:01;;;;;;;8.50;3.97;;;;;;;;;;5043257;28;20021;-78
2023/01/17 10:43:38;;;;;;;6.70;3.57;;;;;;;;;;5047435;28;20450;-78
2023/01/17 10:46:04;;;;;;;10.63;4.33;;;;;;;;;;5038973;28;20021;-77
2023/01/17 10:48:37;;;;;;;8.27;3.90;;;;;;;;;;5047209;28;20689;-79
2023/01/17 10:51:15;;;;;;;8.27;3.97;;;;;;;;;;5049387;28;20107;-78
2023/01/17 10:53:50;;;;;;;10.90;4.30;;;;;;;;;;5043272;28;20025;-78
2023/01/17 10:56:17;;;;;;;11.53;4.63;;;;;;;;;;5032983;28;20029;-77
2023/01/17 10:59:03;;;;;;;16.27;4.73;;;;;;;;;;5041317;28;20021;-77
2023/01/17 11:01:29;;;;;;;6.93;5.27;;;;;;;;;;5031457;28;20025;-77
2023/01/17 11:03:57;;;;;;;6.73;3.83;;;;;;;;;;5048178;28;20044;-77
2023/01/17 11:06:24;;;;;;;9.77;3.80;;;;;;;;;;5032001;28;20025;-76
2023/01/17 11:08:53;;;;;;;10.60;4.07;;;;;;;;;;5031299;28;20123;-76
2023/01/17 11:11:29;;;;;;;7.93;3.67;;;;;;;;;;5042165;28;20056;-77
2023/01/17 11:13:56;;;;;;;10.60;4.07;;;;;;;;;;5040692;28;20076;-77
2023/01/17 11:16:26;;;;;;;9.40;3.90;;;;;;;;;;5033990;28;20032;-78
2023/01/17 11:19:11;;;;;;;12.70;3.90;;;;;;;;;;5025227;28;20030;-78
2023/01/17 11:21:39;;;;;;;8.43;3.50;;;;;;;;;;5024729;28;20038;-78
2023/01/17 11:24:12;;;;;;;8.20;3.37;;;;;;;;;;5041874;28;20040;-77
2023/01/17 11:26:46;;;;;;;13.10;3.33;;;;;;;;;;5031411;28;20026;-78
2023/01/17 11:29:24;;;;;;;16.60;3.30;;;;;;;;;;5031244;28;20064;-77
2023/01/17 11:31:50;;;;;;;8.10;2.97;;;;;;;;;;5040898;28;20080;-78
2023/01/17 11:34:28;;;;;;;27.20;16.60;;;;;;;;;;5046895;28;20037;-78
2023/01/17 11:37:16;;;;;;;38.13;17.23;;;;;;;;;;5027257;28;20030;-77
2023/01/17 11:39:43;;;;;;;64.93;41.47;;;;;;;;;;5024762;28;20036;-77
2023/01/17 11:42:28;;;;;;;15.70;4.83;;;;;;;;;;5046953;28;20402;-78
2023/01/17 11:44:55;;;;;;;14.07;6.30;;;;;;;;;;5040905;28;20044;-77
2023/01/17 11:47:21;;;;;;;14.73;3.90;;;;;;;;;;5047993;28;20029;-77
2023/01/17 11:49:48;;;;;;;11.30;2.90;;;;;;;;;;5035003;28;20091;-76
2023/01/17 11:52:18;;;;;;;11.07;2.93;;;;;;;;;;5050773;28;20026;-76
2023/01/17 11:54:45;;;;;;;11.50;2.53;;;;;;;;;;5044874;28;20037;-77
2023/01/17 11:57:25;;;;;;;11.37;3.23;;;;;;;;;;5050449;28;20343;-77
2023/01/17 12:00:00;;;;;;;11.23;2.70;;;;;;;;;;5034744;28;20026;-77
2023/01/17 12:02:32;;;;;;;8.60;2.47;;;;;;;;;;5033188;28;20040;-77
2023/01/17 12:05:13;;;;;;;9.20;3.50;;;;;;;;;;5044400;28;20033;-78
2023/01/17 12:07:58;;;;;;;9.63;2.57;;;;;;;;;;5046008;28;20030;-77
2023/01/17 12:10:27;;;;;;;9.50;2.33;;;;;;;;;;5034861;28;20029;-78
2023/01/17 12:15:45;;;;;;;13.53;2.83;;;;;;;;;;5033590;28;20040;-75
2023/01/17 12:18:20;;;;;;;10.53;2.50;;;;;;;;;;5027204;28;20052;-76
2023/01/17 12:21:02;;;;;;;5.77;1.80;;;;;;;;;;5050435;28;20038;-78
2023/01/17 12:23:43;;;;;;;12.77;2.67;;;;;;;;;;5043786;28;20165;-78
2023/01/17 12:26:18;;;;;;;15.93;2.73;;;;;;;;;;5044860;28;20469;-77
2023/01/17 12:28:45;;;;;;;7.97;1.97;;;;;;;;;;5033534;28;20099;-77
2023/01/17 12:31:33;;;;;;;12.37;2.33;;;;;;;;;;5033926;28;20029;-76
2023/01/17 12:34:02;;;;;;;9.33;2.40;;;;;;;;;;5030909;28;20032;-77
2023/01/17 12:36:45;;;;;;;4.73;2.13;;;;;;;;;;5047336;28;20048;-76
2023/01/17 12:39:13;;;;;;;18.63;2.43;;;;;;;;;;5033449;28;20037;-77
2023/01/17 12:41:45;;;;;;;8.83;2.00;;;;;;;;;;5033981;28;20057;-78
2023/01/17 12:44:12;;;;;;;9.48;2.22;;;;;;;;;;5048992;28;21660;-78
2023/01/17 12:46:52;;;;;;;9.87;2.40;;;;;;;;;;5033976;28;20032;-77
2023/01/17 12:49:18;;;;;;;8.33;2.27;;;;;;;;;;5033577;28;20105;-78
2023/01/17 12:51:46;;;;;;;16.33;2.90;;;;;;;;;;5043438;28;20128;-78
2023/01/17 12:54:18;;;;;;;12.20;4.83;;;;;;;;;;5030568;28;20043;-78
2023/01/17 12:56:50;;;;;;;19.85;7.10;;;;;;;;;;5041079;28;20036;-78
2023/01/17 12:59:29;;;;;;;7.60;1.92;;;;;;;;;;5047716;28;20117;-77
2023/01/17 13:01:58;;;;;;;12.67;2.47;;;;;;;;;;5043612;28;20100;-77
2023/01/17 13:04:32;;;;;;;16.73;5.33;;;;;;;;;;5048413;28;20026;-79
2023/01/17 13:06:58;;;;;;;8.87;2.00;;;;;;;;;;5026177;28;20040;-78
2023/01/17 13:09:29;;;;;;;9.17;2.37;;;;;;;;;;5048136;28;20037;-78
2023/01/17 13:11:57;;;;;;;15.17;2.87;;;;;;;;;;5027467;28;20462;-79
2023/01/17 13:14:23;;;;;;;10.30;2.20;;;;;;;;;;5032492;28;20037;-78
2023/01/17 13:17:00;;;;;;;13.37;2.40;;;;;;;;;;5034407;28;20382;-77
2023/01/17 13:19:26;;;;;;;9.97;1.70;;;;;;;;;;5031078;28;20030;-77
2023/01/17 13:21:52;;;;;;;10.47;1.97;;;;;;;;;;5029143;28;20025;-78
2023/01/17 13:24:41;;;;;;;9.50;1.90;;;;;;;;;;5034535;28;20037;-79
2023/01/17 13:27:17;;;;;;;7.70;2.10;;;;;;;;;;5019952;28;20355;-79
2023/01/17 13:30:01;;;;;;;8.63;2.17;;;;;;;;;;5034764;28;20061;-77
2023/01/17 13:32:27;;;;;;;5.83;2.33;;;;;;;;;;5030742;28;20616;-79
2023/01/17 13:35:06;;;;;;;7.07;2.50;;;;;;;;;;5033464;28;20120;-78
2023/01/17 13:37:50;;;;;;;7.40;1.80;;;;;;;;;;5028412;28;20041;-79
2023/01/17 13:40:36;;;;;;;9.77;2.37;;;;;;;;;;5032186;28;20073;-78
2023/01/17 13:43:04;;;;;;;11.00;2.10;;;;;;;;;;5028445;28;20037;-77
2023/01/17 13:45:31;;;;;;;11.87;2.30;;;;;;;;;;5048099;28;20119;-77
2023/01/17 13:48:18;;;;;;;11.20;2.30;;;;;;;;;;5034472;28;20045;-76
2023/01/17 13:50:46;;;;;;;6.73;2.43;;;;;;;;;;5019016;28;20476;-77
2023/01/17 13:53:31;;;;;;;10.60;2.07;;;;;;;;;;5048792;28;20099;-77
2023/01/17 13:56:16;;;;;;;8.23;2.90;;;;;;;;;;5050706;28;20033;-77
2023/01/17 13:58:57;;;;;;;8.03;2.30;;;;;;;;;;5048040;28;20033;-79
2023/01/17 14:01:23;;;;;;;6.20;2.20;;;;;;;;;;5031194;28;20030;-79
2023/01/17 14:03:49;;;;;;;7.90;1.80;;;;;;;;;;5048111;28;20025;-78
2023/01/17 14:06:37;;;;;;;7.73;1.60;;;;;;;;;;5047887;28;20369;-79
2023/01/17 14:09:04;;;;;;;6.23;1.53;;;;;;;;;;5031063;28;20037;-78
2023/01/17 14:11:35;;;;;;;6.20;1.70;;;;;;;;;;5046237;28;20079;-77
2023/01/17 14:14:19;;;;;;;6.47;1.80;;;;;;;;;;5047262;28;20040;-78
2023/01/17 14:16:45;;;;;;;10.97;1.80;;;;;;;;;;5031523;28;20029;-78
2023/01/17 14:19:24;;;;;;;5.60;1.40;;;;;;;;;;5047612;28;20103;-77
2023/01/17 14:21:50;;;;;;;4.27;1.63;;;;;;;;;;5047154;28;20457;-77
2023/01/17 14:24:17;;;;;;;32.67;3.70;;;;;;;;;;5047374;28;20049;-77
2023/01/17 14:26:45;;;;;;;5.13;1.73;;;;;;;;;;5047111;28;20450;-78
2023/01/17 14:29:41;;;;;;;7.33;1.97;;;;;;;;;;5046861;28;20057;-77
2023/01/17 14:32:10;;;;;;;5.03;2.07;;;;;;;;;;5009821;28;20083;-77
2023/01/17 14:34:36;;;;;;;8.80;2.57;;;;;;;;;;5046730;28;20067;-78
2023/01/17 14:37:21;;;;;;;9.53;2.40;;;;;;;;;;5025026;28;20087;-78
2023/01/17 14:39:48;;;;;;;4.50;1.80;;;;;;;;;;5046130;28;20044;-78
2023/01/17 14:42:15;;;;;;;12.63;2.30;;;;;;;;;;5030513;28;20030;-78
2023/01/17 14:44:45;;;;;;;12.83;1.63;;;;;;;;;;5030839;28;20101;-76
2023/01/17 14:47:12;;;;;;;11.33;2.80;;;;;;;;;;5045870;28;20841;-76
2023/01/17 14:49:39;;;;;;;4.83;1.67;;;;;;;;;;5041001;28;20092;-78
2023/01/17 14:52:05;;;;;;;9.37;2.10;;;;;;;;;;5031584;28;20084;-77
2023/01/17 14:54:31;;;;;;;10.70;2.40;;;;;;;;;;5040482;28;20036;-78
2023/01/17 14:57:14;;;;;;;4.73;1.90;;;;;;;;;;5025879;28;20025;-77
2023/01/17 14:59:40;;;;;;;8.23;2.47;;;;;;;;;;5030630;28;20995;-78
2023/01/17 15:02:14;;;;;;;10.20;2.50;;;;;;;;;;5025215;28;20141;-76
2023/01/17 15:04:40;;;;;;;9.37;2.00;;;;;;;;;;5040624;28;20433;-78
2023/01/17 15:07:07;;;;;;;5.13;2.33;;;;;;;;;;5045695;28;20176;-78
2023/01/17 15:09:35;;;;;;;6.30;2.03;;;;;;;;;;5030130;28;20041;-76
2023/01/17 15:12:01;;;;;;;10.37;1.93;;;;;;;;;;5045805;28;20030;-77
2023/01/17 15:14:38;;;;;;;13.27;1.87;;;;;;;;;;5039203;28;20048;-76
2023/01/17 15:17:08;;;;;;;5.63;2.17;;;;;;;;;;5040412;28;20025;-77
2023/01/17 15:19:41;;;;;;;7.63;2.27;;;;;;;;;;5029799;28;20033;-77
2023/01/17 15:22:07;;;;;;;7.43;1.90;;;;;;;;;;5022030;28;20099;-78
2023/01/17 15:24:39;;;;;;;7.10;2.00;;;;;;;;;;5046743;28;20045;-78
2023/01/17 15:27:07;;;;;;;12.82;1.88;;;;;;;;;;5022194;28;20041;-76
2023/01/17 15:29:35;;;;;;;5.20;2.03;;;;;;;;;;5025814;28;20553;-77
2023/01/17 15:32:02;;;;;;;9.87;2.10;;;;;;;;;;5048519;28;20034;-77
2023/01/17 15:34:29;;;;;;;6.80;2.00;;;;;;;;;;5024091;28;20041;-76
2023/01/17 15:36:56;;;;;;;4.77;2.00;;;;;;;;;;5022852;28;20087;-76
2023/01/17 15:39:22;;;;;;;7.87;2.27;;;;;;;;;;5046240;28;20053;-75
2023/01/17 15:41:55;;;;;;;5.27;2.57;;;;;;;;;;5024702;28;20057;-78
2023/01/17 15:44:23;;;;;;;10.32;2.08;;;;;;;;;;5046033;28;20068;-78
2023/01/17 15:46:49;;;;;;;9.50;2.70;;;;;;;;;;5028055;28;20065;-78
2023/01/17 15:49:19;;;;;;;15.13;2.73;;;;;;;;;;5024351;28;20060;-78
2023/01/17 15:51:55;;;;;;;7.57;2.40;;;;;;;;;;5045563;28;22045;-78
2023/01/17 15:54:33;;;;;;;7.30;2.20;;;;;;;;;;5039823;28;20345;-77
2023/01/17 15:57:05;;;;;;;14.57;3.00;;;;;;;;;;5040432;28;20105;-76
2023/01/17 15:59:31;;;;;;;12.93;2.30;;;;;;;;;;5045368;28;20308;-77
2023/01/17 16:02:00;;;;;;;10.70;2.57;;;;;;;;;;5030060;28;20417;-77
2023/01/17 16:04:36;;;;;;;14.00;2.40;;;;;;;;;;5028867;28;20033;-77
2023/01/17 16:07:28;;;;;;;10.77;2.40;;;;;;;;;;5022115;28;20359;-78
2023/01/17 16:10:01;;;;;;;8.35;2.40;;;;;;;;;;5030574;28;20292;-76
2023/01/17 16:12:27;;;;;;;12.52;2.25;;;;;;;;;;5026268;28;20033;-77